sensor_id;sensor_type;location;lat;lon;timestamp;P1;durP1;ratioP1;P2;durP2;ratioP2
22711;SDS011;11523;50.390;8.072;2024-02-14T00:02:09;7.43;;;2.42;;
22711;SDS011;11523;50.390;8.072;2024-02-14T00:04:35;8.27;;;2.65;;
22711;SDS011;11523;50.390;8.072;2024-02-14T00:07:00;5.88;;;2.83;;
22711;SDS011;11523;50.390;8.072;2024-02-14T00:09:26;4.22;;;2.40;;
22711;SDS011;11523;50.390;8.072;2024-02-14T00:11:52;5.63;;;2.53;;
22711;SDS011;11523;50.390;8.072;2024-02-14T00:14:18;6.05;;;2.17;;
22711;SDS011;11523;50.390;8.072;2024-02-14T00:16:45;3.70;;;2.85;;
22711;SDS011;11523;50.390;8.072;2024-02-14T00:19:11;5.30;;;2.15;;
22711;SDS011;11523;50.390;8.072;2024-02-14T00:21:37;3.28;;;1.92;;
22711;SDS011;11523;50.390;8.072;2024-02-14T00:24:04;4.63;;;2.33;;
22711;SDS011;11523;50.390;8.072;2024-02-14T00:26:30;4.43;;;2.22;;
22711;SDS011;11523;50.390;8.072;2024-02-14T00:28:56;5.05;;;2.53;;
22711;SDS011;11523;50.390;8.072;2024-02-14T00:31:22;6.75;;;2.35;;
22711;SDS011;11523;50.390;8.072;2024-02-14T00:33:48;5.10;;;2.10;;
22711;SDS011;11523;50.390;8.072;2024-02-14T00:36:14;4.50;;;2.30;;
22711;SDS011;11523;50.390;8.072;2024-02-14T00:38:40;3.83;;;1.92;;
22711;SDS011;11523;50.390;8.072;2024-02-14T00:41:06;4.85;;;2.20;;
22711;SDS011;11523;50.390;8.072;2024-02-14T00:43:38;4.43;;;2.22;;
22711;SDS011;11523;50.390;8.072;2024-02-14T00:46:04;4.47;;;2.10;;
22711;SDS011;11523;50.390;8.072;2024-02-14T00:48:31;4.32;;;2.10;;
22711;SDS011;11523;50.390;8.072;2024-02-14T00:50:57;4.32;;;2.13;;
22711;SDS011;11523;50.390;8.072;2024-02-14T00:53:24;4.68;;;2.30;;
22711;SDS011;11523;50.390;8.072;2024-02-14T00:55:50;4.80;;;2.30;;
22711;SDS011;11523;50.390;8.072;2024-02-14T00:58:16;6.75;;;2.38;;
22711;SDS011;11523;50.390;8.072;2024-02-14T01:00:42;6.07;;;2.15;;
22711;SDS011;11523;50.390;8.072;2024-02-14T01:03:08;4.65;;;2.20;;
22711;SDS011;11523;50.390;8.072;2024-02-14T01:05:37;4.68;;;2.47;;
22711;SDS011;11523;50.390;8.072;2024-02-14T01:08:04;5.10;;;2.20;;
22711;SDS011;11523;50.390;8.072;2024-02-14T01:10:30;3.58;;;2.20;;
22711;SDS011;11523;50.390;8.072;2024-02-14T01:12:55;5.05;;;2.38;;
22711;SDS011;11523;50.390;8.072;2024-02-14T01:15:22;6.55;;;2.60;;
22711;SDS011;11523;50.390;8.072;2024-02-14T01:17:48;6.60;;;2.20;;
22711;SDS011;11523;50.390;8.072;2024-02-14T01:20:13;4.60;;;2.08;;
22711;SDS011;11523;50.390;8.072;2024-02-14T01:22:40;6.38;;;2.70;;
22711;SDS011;11523;50.390;8.072;2024-02-14T01:25:06;4.53;;;2.20;;
22711;SDS011;11523;50.390;8.072;2024-02-14T01:27:32;6.20;;;2.42;;
22711;SDS011;11523;50.390;8.072;2024-02-14T01:29:58;4.22;;;2.05;;
22711;SDS011;11523;50.390;8.072;2024-02-14T01:32:24;5.10;;;2.15;;
22711;SDS011;11523;50.390;8.072;2024-02-14T01:34:52;2.72;;;2.00;;
22711;SDS011;11523;50.390;8.072;2024-02-14T01:37:18;5.57;;;2.10;;
22711;SDS011;11523;50.390;8.072;2024-02-14T01:39:45;4.88;;;2.03;;
22711;SDS011;11523;50.390;8.072;2024-02-14T01:42:18;4.72;;;2.10;;
22711;SDS011;11523;50.390;8.072;2024-02-14T01:44:45;6.78;;;2.17;;
22711;SDS011;11523;50.390;8.072;2024-02-14T01:47:11;4.50;;;1.98;;
22711;SDS011;11523;50.390;8.072;2024-02-14T01:49:50;5.05;;;2.05;;
22711;SDS011;11523;50.390;8.072;2024-02-14T01:52:16;5.90;;;2.10;;
22711;SDS011;11523;50.390;8.072;2024-02-14T01:54:42;4.03;;;2.05;;
22711;SDS011;11523;50.390;8.072;2024-02-14T01:57:08;3.88;;;1.83;;
22711;SDS011;11523;50.390;8.072;2024-02-14T01:59:36;5.82;;;2.13;;
22711;SDS011;11523;50.390;8.072;2024-02-14T02:02:02;6.00;;;1.90;;
22711;SDS011;11523;50.390;8.072;2024-02-14T02:04:28;4.05;;;2.15;;
22711;SDS011;11523;50.390;8.072;2024-02-14T02:06:55;5.28;;;1.90;;
22711;SDS011;11523;50.390;8.072;2024-02-14T02:09:21;4.95;;;1.90;;
22711;SDS011;11523;50.390;8.072;2024-02-14T02:11:48;5.55;;;2.10;;
22711;SDS011;11523;50.390;8.072;2024-02-14T02:14:14;7.50;;;2.22;;
22711;SDS011;11523;50.390;8.072;2024-02-14T02:16:41;4.25;;;2.33;;
22711;SDS011;11523;50.390;8.072;2024-02-14T02:19:07;5.22;;;1.95;;
22711;SDS011;11523;50.390;8.072;2024-02-14T02:21:34;6.28;;;2.58;;
22711;SDS011;11523;50.390;8.072;2024-02-14T02:24:00;5.60;;;2.05;;
22711;SDS011;11523;50.390;8.072;2024-02-14T02:26:26;4.88;;;1.90;;
22711;SDS011;11523;50.390;8.072;2024-02-14T02:28:52;7.35;;;2.30;;
22711;SDS011;11523;50.390;8.072;2024-02-14T02:31:19;7.40;;;2.35;;
22711;SDS011;11523;50.390;8.072;2024-02-14T02:33:45;3.72;;;1.60;;
22711;SDS011;11523;50.390;8.072;2024-02-14T02:36:11;4.30;;;1.70;;
22711;SDS011;11523;50.390;8.072;2024-02-14T02:38:37;5.03;;;1.95;;
22711;SDS011;11523;50.390;8.072;2024-02-14T02:41:04;5.15;;;2.05;;
22711;SDS011;11523;50.390;8.072;2024-02-14T02:43:34;4.20;;;1.75;;
22711;SDS011;11523;50.390;8.072;2024-02-14T02:46:00;7.03;;;2.15;;
22711;SDS011;11523;50.390;8.072;2024-02-14T02:48:26;2.95;;;1.80;;
22711;SDS011;11523;50.390;8.072;2024-02-14T02:50:52;5.07;;;2.30;;
22711;SDS011;11523;50.390;8.072;2024-02-14T02:53:18;4.95;;;2.00;;
22711;SDS011;11523;50.390;8.072;2024-02-14T02:55:44;3.88;;;1.75;;
22711;SDS011;11523;50.390;8.072;2024-02-14T02:58:11;4.53;;;1.60;;
22711;SDS011;11523;50.390;8.072;2024-02-14T03:00:37;5.53;;;1.73;;
22711;SDS011;11523;50.390;8.072;2024-02-14T03:03:02;4.65;;;1.88;;
22711;SDS011;11523;50.390;8.072;2024-02-14T03:05:33;4.57;;;1.70;;
22711;SDS011;11523;50.390;8.072;2024-02-14T03:07:59;2.42;;;1.75;;
22711;SDS011;11523;50.390;8.072;2024-02-14T03:10:25;3.85;;;1.80;;
22711;SDS011;11523;50.390;8.072;2024-02-14T03:12:51;1.95;;;1.48;;
22711;SDS011;11523;50.390;8.072;2024-02-14T03:15:17;5.07;;;1.60;;
22711;SDS011;11523;50.390;8.072;2024-02-14T03:17:44;6.35;;;1.80;;
22711;SDS011;11523;50.390;8.072;2024-02-14T03:20:11;2.75;;;1.92;;
22711;SDS011;11523;50.390;8.072;2024-02-14T03:22:38;4.18;;;1.80;;
22711;SDS011;11523;50.390;8.072;2024-02-14T03:25:09;6.55;;;1.67;;
22711;SDS011;11523;50.390;8.072;2024-02-14T03:27:36;4.32;;;1.58;;
22711;SDS011;11523;50.390;8.072;2024-02-14T03:30:02;5.55;;;1.88;;
22711;SDS011;11523;50.390;8.072;2024-02-14T03:32:28;2.88;;;1.55;;
22711;SDS011;11523;50.390;8.072;2024-02-14T03:34:54;3.15;;;1.60;;
22711;SDS011;11523;50.390;8.072;2024-02-14T03:37:20;5.22;;;1.98;;
22711;SDS011;11523;50.390;8.072;2024-02-14T03:39:46;5.18;;;2.10;;
22711;SDS011;11523;50.390;8.072;2024-02-14T03:42:12;5.88;;;1.70;;
22711;SDS011;11523;50.390;8.072;2024-02-14T03:44:38;3.55;;;1.63;;
22711;SDS011;11523;50.390;8.072;2024-02-14T03:47:05;2.08;;;1.58;;
22711;SDS011;11523;50.390;8.072;2024-02-14T03:49:31;3.65;;;1.70;;
22711;SDS011;11523;50.390;8.072;2024-02-14T03:51:57;4.03;;;1.73;;
22711;SDS011;11523;50.390;8.072;2024-02-14T03:54:24;3.75;;;1.63;;
22711;SDS011;11523;50.390;8.072;2024-02-14T03:56:50;3.83;;;1.83;;
22711;SDS011;11523;50.390;8.072;2024-02-14T03:59:17;3.38;;;1.80;;
22711;SDS011;11523;50.390;8.072;2024-02-14T04:01:49;2.70;;;1.75;;
22711;SDS011;11523;50.390;8.072;2024-02-14T04:04:18;3.83;;;1.90;;
22711;SDS011;11523;50.390;8.072;2024-02-14T04:06:44;2.65;;;1.40;;
22711;SDS011;11523;50.390;8.072;2024-02-14T04:09:10;4.95;;;1.80;;
22711;SDS011;11523;50.390;8.072;2024-02-14T04:11:37;3.55;;;1.70;;
22711;SDS011;11523;50.390;8.072;2024-02-14T04:14:03;4.10;;;1.83;;
22711;SDS011;11523;50.390;8.072;2024-02-14T04:16:29;5.63;;;1.70;;
22711;SDS011;11523;50.390;8.072;2024-02-14T04:18:54;6.10;;;2.10;;
22711;SDS011;11523;50.390;8.072;2024-02-14T04:21:21;3.15;;;1.70;;
22711;SDS011;11523;50.390;8.072;2024-02-14T04:23:47;3.17;;;1.83;;
22711;SDS011;11523;50.390;8.072;2024-02-14T04:26:19;3.78;;;1.65;;
22711;SDS011;11523;50.390;8.072;2024-02-14T04:28:45;4.22;;;2.25;;
22711;SDS011;11523;50.390;8.072;2024-02-14T04:31:11;4.38;;;2.15;;
22711;SDS011;11523;50.390;8.072;2024-02-14T04:33:37;5.47;;;1.77;;
22711;SDS011;11523;50.390;8.072;2024-02-14T04:36:03;6.68;;;1.83;;
22711;SDS011;11523;50.390;8.072;2024-02-14T04:38:30;5.35;;;1.88;;
22711;SDS011;11523;50.390;8.072;2024-02-14T04:40:56;4.15;;;2.00;;
22711;SDS011;11523;50.390;8.072;2024-02-14T04:43:23;4.85;;;2.00;;
22711;SDS011;11523;50.390;8.072;2024-02-14T04:45:49;6.95;;;2.75;;
22711;SDS011;11523;50.390;8.072;2024-02-14T04:48:15;4.75;;;1.80;;
22711;SDS011;11523;50.390;8.072;2024-02-14T04:50:42;4.00;;;1.85;;
22711;SDS011;11523;50.390;8.072;2024-02-14T04:53:08;4.97;;;1.70;;
22711;SDS011;11523;50.390;8.072;2024-02-14T04:55:34;3.00;;;1.90;;
22711;SDS011;11523;50.390;8.072;2024-02-14T04:58:01;4.32;;;2.20;;
22711;SDS011;11523;50.390;8.072;2024-02-14T05:00:27;6.75;;;2.30;;
22711;SDS011;11523;50.390;8.072;2024-02-14T05:02:53;4.88;;;2.38;;
22711;SDS011;11523;50.390;8.072;2024-02-14T05:05:19;4.57;;;2.03;;
22711;SDS011;11523;50.390;8.072;2024-02-14T05:07:45;6.25;;;2.20;;
22711;SDS011;11523;50.390;8.072;2024-02-14T05:10:11;7.65;;;2.10;;
22711;SDS011;11523;50.390;8.072;2024-02-14T05:12:37;6.40;;;2.17;;
22711;SDS011;11523;50.390;8.072;2024-02-14T05:15:03;5.60;;;1.92;;
22711;SDS011;11523;50.390;8.072;2024-02-14T05:17:29;4.13;;;2.22;;
22711;SDS011;11523;50.390;8.072;2024-02-14T05:19:55;7.10;;;2.72;;
22711;SDS011;11523;50.390;8.072;2024-02-14T05:22:21;6.65;;;2.15;;
22711;SDS011;11523;50.390;8.072;2024-02-14T05:24:47;9.68;;;2.30;;
22711;SDS011;11523;50.390;8.072;2024-02-14T05:27:13;6.25;;;2.60;;
22711;SDS011;11523;50.390;8.072;2024-02-14T05:29:39;6.40;;;2.30;;
22711;SDS011;11523;50.390;8.072;2024-02-14T05:32:05;8.43;;;2.38;;
22711;SDS011;11523;50.390;8.072;2024-02-14T05:34:34;4.97;;;2.60;;
22711;SDS011;11523;50.390;8.072;2024-02-14T05:37:00;4.88;;;2.22;;
22711;SDS011;11523;50.390;8.072;2024-02-14T05:39:26;5.40;;;2.03;;
22711;SDS011;11523;50.390;8.072;2024-02-14T05:41:52;5.53;;;2.28;;
22711;SDS011;11523;50.390;8.072;2024-02-14T05:44:19;4.38;;;2.70;;
22711;SDS011;11523;50.390;8.072;2024-02-14T05:46:44;6.80;;;2.40;;
22711;SDS011;11523;50.390;8.072;2024-02-14T05:49:11;4.63;;;2.15;;
22711;SDS011;11523;50.390;8.072;2024-02-14T05:51:37;3.45;;;2.33;;
22711;SDS011;11523;50.390;8.072;2024-02-14T05:54:03;5.25;;;2.28;;
22711;SDS011;11523;50.390;8.072;2024-02-14T05:56:29;5.47;;;2.47;;
22711;SDS011;11523;50.390;8.072;2024-02-14T05:58:55;5.22;;;2.33;;
22711;SDS011;11523;50.390;8.072;2024-02-14T06:01:21;2.83;;;2.00;;
22711;SDS011;11523;50.390;8.072;2024-02-14T06:03:47;6.43;;;2.72;;
22711;SDS011;11523;50.390;8.072;2024-02-14T06:06:13;4.50;;;2.30;;
22711;SDS011;11523;50.390;8.072;2024-02-14T06:08:38;4.85;;;2.22;;
22711;SDS011;11523;50.390;8.072;2024-02-14T06:11:04;4.85;;;2.33;;
22711;SDS011;11523;50.390;8.072;2024-02-14T06:13:30;4.88;;;2.00;;
22711;SDS011;11523;50.390;8.072;2024-02-14T06:15:56;9.20;;;2.50;;
22711;SDS011;11523;50.390;8.072;2024-02-14T06:18:22;6.47;;;2.83;;
22711;SDS011;11523;50.390;8.072;2024-02-14T06:20:48;5.93;;;2.58;;
22711;SDS011;11523;50.390;8.072;2024-02-14T06:23:15;5.53;;;2.58;;
22711;SDS011;11523;50.390;8.072;2024-02-14T06:25:41;3.50;;;2.28;;
22711;SDS011;11523;50.390;8.072;2024-02-14T06:28:07;3.33;;;1.98;;
22711;SDS011;11523;50.390;8.072;2024-02-14T06:30:34;4.07;;;2.30;;
22711;SDS011;11523;50.390;8.072;2024-02-14T06:33:00;8.35;;;2.38;;
22711;SDS011;11523;50.390;8.072;2024-02-14T06:35:27;3.85;;;2.13;;
22711;SDS011;11523;50.390;8.072;2024-02-14T06:37:53;4.00;;;2.00;;
22711;SDS011;11523;50.390;8.072;2024-02-14T06:40:19;4.40;;;2.22;;
22711;SDS011;11523;50.390;8.072;2024-02-14T06:42:46;4.93;;;2.08;;
22711;SDS011;11523;50.390;8.072;2024-02-14T06:45:13;4.90;;;2.03;;
22711;SDS011;11523;50.390;8.072;2024-02-14T06:47:39;6.72;;;2.97;;
22711;SDS011;11523;50.390;8.072;2024-02-14T06:50:05;5.05;;;2.63;;
22711;SDS011;11523;50.390;8.072;2024-02-14T06:52:32;4.55;;;2.92;;
22711;SDS011;11523;50.390;8.072;2024-02-14T06:54:58;5.32;;;2.53;;
22711;SDS011;11523;50.390;8.072;2024-02-14T06:57:24;5.82;;;3.38;;
22711;SDS011;11523;50.390;8.072;2024-02-14T06:59:50;7.65;;;3.30;;
22711;SDS011;11523;50.390;8.072;2024-02-14T07:02:15;5.82;;;3.20;;
22711;SDS011;11523;50.390;8.072;2024-02-14T07:04:41;7.35;;;2.90;;
22711;SDS011;11523;50.390;8.072;2024-02-14T07:07:07;6.28;;;2.50;;
22711;SDS011;11523;50.390;8.072;2024-02-14T07:09:33;7.38;;;3.10;;
22711;SDS011;11523;50.390;8.072;2024-02-14T07:12:03;5.63;;;2.90;;
22711;SDS011;11523;50.390;8.072;2024-02-14T07:14:30;7.15;;;2.20;;
22711;SDS011;11523;50.390;8.072;2024-02-14T07:16:56;4.80;;;2.55;;
22711;SDS011;11523;50.390;8.072;2024-02-14T07:19:21;7.40;;;2.92;;
22711;SDS011;11523;50.390;8.072;2024-02-14T07:21:47;4.68;;;2.67;;
22711;SDS011;11523;50.390;8.072;2024-02-14T07:24:13;4.18;;;2.60;;
22711;SDS011;11523;50.390;8.072;2024-02-14T07:26:39;7.07;;;2.88;;
22711;SDS011;11523;50.390;8.072;2024-02-14T07:29:06;3.35;;;2.65;;
22711;SDS011;11523;50.390;8.072;2024-02-14T07:31:32;9.88;;;3.10;;
22711;SDS011;11523;50.390;8.072;2024-02-14T07:33:59;6.85;;;3.28;;
22711;SDS011;11523;50.390;8.072;2024-02-14T07:36:27;8.48;;;3.40;;
22711;SDS011;11523;50.390;8.072;2024-02-14T07:38:53;5.78;;;3.40;;
22711;SDS011;11523;50.390;8.072;2024-02-14T07:41:19;7.13;;;3.80;;
22711;SDS011;11523;50.390;8.072;2024-02-14T07:43:52;7.82;;;3.30;;
22711;SDS011;11523;50.390;8.072;2024-02-14T07:46:18;6.45;;;3.17;;
22711;SDS011;11523;50.390;8.072;2024-02-14T07:48:44;8.38;;;3.25;;
22711;SDS011;11523;50.390;8.072;2024-02-14T07:51:18;7.63;;;2.80;;
22711;SDS011;11523;50.390;8.072;2024-02-14T07:53:45;5.10;;;3.00;;
22711;SDS011;11523;50.390;8.072;2024-02-14T07:56:10;4.68;;;2.30;;
22711;SDS011;11523;50.390;8.072;2024-02-14T07:58:36;5.80;;;2.55;;
22711;SDS011;11523;50.390;8.072;2024-02-14T08:01:02;6.40;;;2.80;;
22711;SDS011;11523;50.390;8.072;2024-02-14T08:03:29;5.50;;;2.60;;
22711;SDS011;11523;50.390;8.072;2024-02-14T08:05:56;7.45;;;2.50;;
22711;SDS011;11523;50.390;8.072;2024-02-14T08:08:22;6.80;;;2.72;;
22711;SDS011;11523;50.390;8.072;2024-02-14T08:10:51;5.00;;;2.58;;
22711;SDS011;11523;50.390;8.072;2024-02-14T08:13:17;4.53;;;2.47;;
22711;SDS011;11523;50.390;8.072;2024-02-14T08:15:43;4.95;;;2.65;;
22711;SDS011;11523;50.390;8.072;2024-02-14T08:18:09;7.32;;;2.83;;
22711;SDS011;11523;50.390;8.072;2024-02-14T08:20:35;4.45;;;2.60;;
22711;SDS011;11523;50.390;8.072;2024-02-14T08:23:01;5.03;;;2.35;;
22711;SDS011;11523;50.390;8.072;2024-02-14T08:25:27;5.47;;;2.70;;
22711;SDS011;11523;50.390;8.072;2024-02-14T08:27:53;6.63;;;2.95;;
22711;SDS011;11523;50.390;8.072;2024-02-14T08:30:19;4.20;;;2.42;;
22711;SDS011;11523;50.390;8.072;2024-02-14T08:32:45;8.00;;;2.63;;
22711;SDS011;11523;50.390;8.072;2024-02-14T08:35:10;6.93;;;2.50;;
22711;SDS011;11523;50.390;8.072;2024-02-14T08:37:38;5.13;;;2.15;;
22711;SDS011;11523;50.390;8.072;2024-02-14T08:40:05;5.70;;;2.30;;
22711;SDS011;11523;50.390;8.072;2024-02-14T08:42:32;4.35;;;1.90;;
22711;SDS011;11523;50.390;8.072;2024-02-14T08:44:59;2.85;;;1.80;;
22711;SDS011;11523;50.390;8.072;2024-02-14T08:47:25;3.80;;;2.10;;
22711;SDS011;11523;50.390;8.072;2024-02-14T08:49:51;4.03;;;1.88;;
22711;SDS011;11523;50.390;8.072;2024-02-14T08:52:17;2.72;;;1.77;;
22711;SDS011;11523;50.390;8.072;2024-02-14T08:54:43;1.55;;;1.30;;
22711;SDS011;11523;50.390;8.072;2024-02-14T08:57:09;3.17;;;1.65;;
22711;SDS011;11523;50.390;8.072;2024-02-14T08:59:35;2.30;;;1.67;;
22711;SDS011;11523;50.390;8.072;2024-02-14T09:02:01;2.15;;;1.70;;
22711;SDS011;11523;50.390;8.072;2024-02-14T09:04:27;3.20;;;1.75;;
22711;SDS011;11523;50.390;8.072;2024-02-14T09:06:53;1.80;;;1.35;;
22711;SDS011;11523;50.390;8.072;2024-02-14T09:09:19;4.68;;;1.67;;
22711;SDS011;11523;50.390;8.072;2024-02-14T09:11:45;4.35;;;1.50;;
22711;SDS011;11523;50.390;8.072;2024-02-14T09:14:12;2.00;;;1.45;;
22711;SDS011;11523;50.390;8.072;2024-02-14T09:16:38;1.25;;;1.15;;
22711;SDS011;11523;50.390;8.072;2024-02-14T09:19:04;3.83;;;1.50;;
22711;SDS011;11523;50.390;8.072;2024-02-14T09:21:32;3.33;;;1.40;;
22711;SDS011;11523;50.390;8.072;2024-02-14T09:24:00;1.77;;;1.10;;
22711;SDS011;11523;50.390;8.072;2024-02-14T09:26:26;2.30;;;1.60;;
22711;SDS011;11523;50.390;8.072;2024-02-14T09:28:52;1.50;;;1.17;;
22711;SDS011;11523;50.390;8.072;2024-02-14T09:31:24;1.63;;;1.30;;
22711;SDS011;11523;50.390;8.072;2024-02-14T09:33:50;1.35;;;1.10;;
22711;SDS011;11523;50.390;8.072;2024-02-14T09:36:18;2.65;;;1.23;;
22711;SDS011;11523;50.390;8.072;2024-02-14T09:38:44;1.88;;;1.20;;
22711;SDS011;11523;50.390;8.072;2024-02-14T09:41:21;2.70;;;1.10;;
22711;SDS011;11523;50.390;8.072;2024-02-14T09:43:48;3.10;;;1.25;;
22711;SDS011;11523;50.390;8.072;2024-02-14T09:46:14;2.13;;;1.27;;
22711;SDS011;11523;50.390;8.072;2024-02-14T09:48:42;2.38;;;1.35;;
22711;SDS011;11523;50.390;8.072;2024-02-14T09:51:09;2.42;;;1.33;;
22711;SDS011;11523;50.390;8.072;2024-02-14T09:53:35;2.88;;;1.15;;
22711;SDS011;11523;50.390;8.072;2024-02-14T09:56:02;2.00;;;1.20;;
22711;SDS011;11523;50.390;8.072;2024-02-14T09:58:28;2.88;;;1.20;;
22711;SDS011;11523;50.390;8.072;2024-02-14T10:01:01;1.80;;;1.30;;
22711;SDS011;11523;50.390;8.072;2024-02-14T10:03:27;1.73;;;1.10;;
22711;SDS011;11523;50.390;8.072;2024-02-14T10:05:53;2.45;;;1.20;;
22711;SDS011;11523;50.390;8.072;2024-02-14T10:08:19;2.67;;;1.30;;
22711;SDS011;11523;50.390;8.072;2024-02-14T10:10:49;2.85;;;1.40;;
22711;SDS011;11523;50.390;8.072;2024-02-14T10:13:15;2.38;;;1.20;;
22711;SDS011;11523;50.390;8.072;2024-02-14T10:15:41;2.33;;;1.30;;
22711;SDS011;11523;50.390;8.072;2024-02-14T10:18:07;1.95;;;1.13;;
22711;SDS011;11523;50.390;8.072;2024-02-14T10:20:34;2.58;;;1.42;;
22711;SDS011;11523;50.390;8.072;2024-02-14T10:23:05;2.30;;;1.10;;
22711;SDS011;11523;50.390;8.072;2024-02-14T10:25:34;1.88;;;1.13;;
22711;SDS011;11523;50.390;8.072;2024-02-14T10:28:03;1.60;;;1.00;;
22711;SDS011;11523;50.390;8.072;2024-02-14T10:30:30;1.98;;;1.10;;
22711;SDS011;11523;50.390;8.072;2024-02-14T10:32:58;1.77;;;1.00;;
22711;SDS011;11523;50.390;8.072;2024-02-14T10:35:24;1.40;;;1.00;;
22711;SDS011;11523;50.390;8.072;2024-02-14T10:37:50;3.05;;;0.98;;
22711;SDS011;11523;50.390;8.072;2024-02-14T10:40:18;1.88;;;1.00;;
22711;SDS011;11523;50.390;8.072;2024-02-14T10:42:46;3.30;;;1.20;;
22711;SDS011;11523;50.390;8.072;2024-02-14T10:45:12;1.38;;;1.00;;
22711;SDS011;11523;50.390;8.072;2024-02-14T10:47:39;2.67;;;1.15;;
22711;SDS011;11523;50.390;8.072;2024-02-14T10:50:06;1.20;;;0.77;;
22711;SDS011;11523;50.390;8.072;2024-02-14T10:52:35;1.63;;;1.00;;
22711;SDS011;11523;50.390;8.072;2024-02-14T10:55:02;2.15;;;1.10;;
22711;SDS011;11523;50.390;8.072;2024-02-14T10:57:29;2.05;;;1.02;;
22711;SDS011;11523;50.390;8.072;2024-02-14T10:59:57;2.47;;;0.93;;
22711;SDS011;11523;50.390;8.072;2024-02-14T11:02:24;2.22;;;0.90;;
22711;SDS011;11523;50.390;8.072;2024-02-14T11:04:50;1.58;;;1.08;;
22711;SDS011;11523;50.390;8.072;2024-02-14T11:07:20;3.20;;;1.05;;
22711;SDS011;11523;50.390;8.072;2024-02-14T11:09:48;1.17;;;0.95;;
22711;SDS011;11523;50.390;8.072;2024-02-14T11:12:15;2.75;;;0.82;;
22711;SDS011;11523;50.390;8.072;2024-02-14T11:14:44;2.85;;;1.10;;
22711;SDS011;11523;50.390;8.072;2024-02-14T11:17:10;1.15;;;0.75;;
22711;SDS011;11523;50.390;8.072;2024-02-14T11:19:38;1.23;;;0.70;;
22711;SDS011;11523;50.390;8.072;2024-02-14T11:22:11;2.08;;;0.90;;
22711;SDS011;11523;50.390;8.072;2024-02-14T11:24:40;1.48;;;0.88;;
22711;SDS011;11523;50.390;8.072;2024-02-14T11:27:10;2.55;;;1.10;;
22711;SDS011;11523;50.390;8.072;2024-02-14T11:29:38;1.65;;;0.88;;
22711;SDS011;11523;50.390;8.072;2024-02-14T11:32:04;1.00;;;0.75;;
22711;SDS011;11523;50.390;8.072;2024-02-14T11:34:33;1.23;;;0.70;;
22711;SDS011;11523;50.390;8.072;2024-02-14T11:36:59;1.83;;;0.73;;
22711;SDS011;11523;50.390;8.072;2024-02-14T11:39:25;2.92;;;1.70;;
22711;SDS011;11523;50.390;8.072;2024-02-14T11:41:51;4.97;;;1.40;;
22711;SDS011;11523;50.390;8.072;2024-02-14T11:44:20;2.40;;;1.10;;
22711;SDS011;11523;50.390;8.072;2024-02-14T11:46:47;1.70;;;1.20;;
22711;SDS011;11523;50.390;8.072;2024-02-14T11:49:13;1.92;;;1.05;;
22711;SDS011;11523;50.390;8.072;2024-02-14T11:51:39;5.25;;;1.40;;
22711;SDS011;11523;50.390;8.072;2024-02-14T11:54:06;2.28;;;1.20;;
22711;SDS011;11523;50.390;8.072;2024-02-14T11:56:32;1.83;;;0.75;;
22711;SDS011;11523;50.390;8.072;2024-02-14T11:59:02;1.88;;;1.20;;
22711;SDS011;11523;50.390;8.072;2024-02-14T12:01:32;2.95;;;1.13;;
22711;SDS011;11523;50.390;8.072;2024-02-14T12:03:58;1.23;;;1.00;;
22711;SDS011;11523;50.390;8.072;2024-02-14T12:06:34;3.00;;;1.08;;
22711;SDS011;11523;50.390;8.072;2024-02-14T12:09:01;2.10;;;0.93;;
22711;SDS011;11523;50.390;8.072;2024-02-14T12:11:30;2.42;;;1.00;;
22711;SDS011;11523;50.390;8.072;2024-02-14T12:14:00;1.90;;;0.90;;
22711;SDS011;11523;50.390;8.072;2024-02-14T12:16:26;2.35;;;1.10;;
22711;SDS011;11523;50.390;8.072;2024-02-14T12:19:03;1.58;;;1.10;;
22711;SDS011;11523;50.390;8.072;2024-02-14T12:21:32;3.10;;;1.10;;
22711;SDS011;11523;50.390;8.072;2024-02-14T12:23:59;1.73;;;1.02;;
22711;SDS011;11523;50.390;8.072;2024-02-14T12:26:25;1.33;;;0.70;;
22711;SDS011;11523;50.390;8.072;2024-02-14T12:28:52;1.95;;;0.98;;
22711;SDS011;11523;50.390;8.072;2024-02-14T12:31:22;2.63;;;1.10;;
22711;SDS011;11523;50.390;8.072;2024-02-14T12:33:48;3.05;;;0.98;;
22711;SDS011;11523;50.390;8.072;2024-02-14T12:36:14;2.83;;;1.00;;
22711;SDS011;11523;50.390;8.072;2024-02-14T12:38:40;1.70;;;0.98;;
22711;SDS011;11523;50.390;8.072;2024-02-14T12:41:06;1.00;;;0.82;;
22711;SDS011;11523;50.390;8.072;2024-02-14T12:43:32;1.80;;;0.90;;
22711;SDS011;11523;50.390;8.072;2024-02-14T12:45:58;2.63;;;0.90;;
22711;SDS011;11523;50.390;8.072;2024-02-14T12:48:24;2.80;;;1.25;;
22711;SDS011;11523;50.390;8.072;2024-02-14T12:50:51;1.85;;;1.00;;
22711;SDS011;11523;50.390;8.072;2024-02-14T12:53:17;2.92;;;1.45;;
22711;SDS011;11523;50.390;8.072;2024-02-14T12:55:44;2.72;;;1.00;;
22711;SDS011;11523;50.390;8.072;2024-02-14T12:58:10;1.23;;;1.02;;
22711;SDS011;11523;50.390;8.072;2024-02-14T13:00:36;3.45;;;1.40;;
22711;SDS011;11523;50.390;8.072;2024-02-14T13:03:03;2.15;;;1.10;;
22711;SDS011;11523;50.390;8.072;2024-02-14T13:05:29;1.85;;;0.85;;
22711;SDS011;11523;50.390;8.072;2024-02-14T13:07:55;2.40;;;0.80;;
22711;SDS011;11523;50.390;8.072;2024-02-14T13:10:21;2.60;;;1.20;;
22711;SDS011;11523;50.390;8.072;2024-02-14T13:12:48;3.72;;;1.50;;
22711;SDS011;11523;50.390;8.072;2024-02-14T13:15:14;2.10;;;1.10;;
22711;SDS011;11523;50.390;8.072;2024-02-14T13:17:41;2.00;;;1.02;;
22711;SDS011;11523;50.390;8.072;2024-02-14T13:20:07;3.92;;;1.40;;
22711;SDS011;11523;50.390;8.072;2024-02-14T13:22:33;4.22;;;0.73;;
22711;SDS011;11523;50.390;8.072;2024-02-14T13:24:59;2.83;;;1.00;;
22711;SDS011;11523;50.390;8.072;2024-02-14T13:27:25;1.45;;;1.10;;
22711;SDS011;11523;50.390;8.072;2024-02-14T13:29:51;1.52;;;0.82;;
22711;SDS011;11523;50.390;8.072;2024-02-14T13:32:17;1.63;;;1.00;;
22711;SDS011;11523;50.390;8.072;2024-02-14T13:34:43;2.17;;;1.10;;
22711;SDS011;11523;50.390;8.072;2024-02-14T13:37:09;2.85;;;1.15;;
22711;SDS011;11523;50.390;8.072;2024-02-14T13:39:35;1.45;;;1.00;;
22711;SDS011;11523;50.390;8.072;2024-02-14T13:42:02;2.25;;;1.00;;
22711;SDS011;11523;50.390;8.072;2024-02-14T13:44:28;1.98;;;1.13;;
22711;SDS011;11523;50.390;8.072;2024-02-14T13:46:54;1.70;;;1.10;;
22711;SDS011;11523;50.390;8.072;2024-02-14T13:49:28;2.33;;;1.27;;
22711;SDS011;11523;50.390;8.072;2024-02-14T13:51:54;2.03;;;1.33;;
22711;SDS011;11523;50.390;8.072;2024-02-14T13:54:21;1.30;;;0.82;;
22711;SDS011;11523;50.390;8.072;2024-02-14T13:56:50;1.25;;;0.85;;
22711;SDS011;11523;50.390;8.072;2024-02-14T13:59:17;3.47;;;1.13;;
22711;SDS011;11523;50.390;8.072;2024-02-14T14:01:44;2.70;;;1.10;;
22711;SDS011;11523;50.390;8.072;2024-02-14T14:04:11;1.85;;;1.17;;
22711;SDS011;11523;50.390;8.072;2024-02-14T14:06:37;2.30;;;1.20;;
22711;SDS011;11523;50.390;8.072;2024-02-14T14:09:04;2.88;;;1.40;;
22711;SDS011;11523;50.390;8.072;2024-02-14T14:11:32;1.50;;;0.90;;
22711;SDS011;11523;50.390;8.072;2024-02-14T14:13:58;3.30;;;0.88;;
22711;SDS011;11523;50.390;8.072;2024-02-14T14:16:26;3.45;;;0.88;;
22711;SDS011;11523;50.390;8.072;2024-02-14T14:18:52;2.97;;;1.20;;
22711;SDS011;11523;50.390;8.072;2024-02-14T14:21:18;1.58;;;1.10;;
22711;SDS011;11523;50.390;8.072;2024-02-14T14:23:44;1.42;;;1.30;;
22711;SDS011;11523;50.390;8.072;2024-02-14T14:26:10;2.10;;;1.20;;
22711;SDS011;11523;50.390;8.072;2024-02-14T14:28:36;2.08;;;1.10;;
22711;SDS011;11523;50.390;8.072;2024-02-14T14:31:02;2.53;;;1.23;;
22711;SDS011;11523;50.390;8.072;2024-02-14T14:33:28;2.22;;;1.02;;
22711;SDS011;11523;50.390;8.072;2024-02-14T14:35:54;2.78;;;1.33;;
22711;SDS011;11523;50.390;8.072;2024-02-14T14:38:20;3.42;;;1.27;;
22711;SDS011;11523;50.390;8.072;2024-02-14T14:40:46;2.15;;;1.50;;
22711;SDS011;11523;50.390;8.072;2024-02-14T14:43:13;2.10;;;1.30;;
22711;SDS011;11523;50.390;8.072;2024-02-14T14:45:39;3.80;;;1.55;;